createdAt,value
2022-12-04T00:00:33.564Z,50.38
2022-12-04T00:03:02.572Z,44.88
2022-12-04T00:05:29.486Z,40.70
2022-12-04T00:07:56.849Z,44.60
2022-12-04T00:10:23.912Z,46.90
2022-12-04T00:12:50.670Z,43.63
2022-12-04T00:15:26.191Z,49.33
2022-12-04T00:17:54.184Z,55.63
2022-12-04T00:20:21.578Z,50.85
2022-12-04T00:22:48.232Z,53.22
2022-12-04T00:25:15.355Z,56.05
2022-12-04T00:27:42.333Z,46.78
2022-12-04T00:30:09.392Z,49.47
2022-12-04T00:32:37.259Z,51.47
2022-12-04T00:35:04.484Z,54.80
2022-12-04T00:37:33.276Z,50.13
2022-12-04T00:40:00.068Z,61.88
2022-12-04T00:42:27.103Z,48.90
2022-12-04T00:44:54.131Z,50.80
2022-12-04T00:47:21.198Z,43.58
2022-12-04T00:49:48.249Z,45.13
2022-12-04T00:52:15.603Z,46.67
2022-12-04T00:54:43.569Z,49.08
2022-12-04T00:57:10.619Z,75.32
2022-12-04T00:59:38.090Z,49.58
2022-12-04T01:02:05.228Z,53.47
2022-12-04T01:04:32.250Z,42.28
2022-12-04T01:07:04.613Z,45.38
2022-12-04T01:09:32.700Z,49.78
2022-12-04T01:11:59.452Z,51.95
2022-12-04T01:14:26.498Z,49.78
2022-12-04T01:16:53.751Z,52.67
2022-12-04T01:19:20.581Z,50.00
2022-12-04T01:21:47.249Z,47.90
2022-12-04T01:24:14.375Z,47.90
2022-12-04T01:26:41.334Z,47.20
2022-12-04T01:29:08.396Z,50.80
2022-12-04T01:31:35.571Z,53.72
2022-12-04T01:34:02.470Z,44.85
2022-12-04T01:36:29.541Z,48.90
2022-12-04T01:38:57.016Z,49.65
2022-12-04T01:41:27.973Z,57.08
2022-12-04T01:44:22.164Z,55.05
2022-12-04T01:46:54.661Z,47.45
2022-12-04T01:49:33.978Z,53.25
2022-12-04T01:52:11.218Z,56.67
2022-12-04T01:54:44.056Z,39.83
2022-12-04T01:57:17.299Z,55.53
2022-12-04T01:59:48.152Z,62.53
2022-12-04T02:02:18.926Z,58.65
2022-12-04T02:04:46.651Z,61.53
2022-12-04T02:07:13.732Z,56.70
2022-12-04T02:09:41.899Z,60.65
2022-12-04T02:12:33.299Z,48.90
2022-12-04T02:15:06.403Z,59.60
2022-12-04T02:17:42.347Z,56.20
2022-12-04T02:20:32.448Z,52.17
2022-12-04T02:23:08.103Z,51.20
2022-12-04T02:25:52.729Z,72.13
2022-12-04T02:28:48.846Z,52.22
2022-12-04T02:31:30.855Z,47.28
2022-12-04T02:34:16.335Z,56.95
2022-12-04T02:37:10.778Z,58.72
2022-12-04T02:40:09.076Z,59.00
2022-12-04T02:43:01.615Z,57.25
2022-12-04T02:45:34.154Z,50.38
2022-12-04T02:48:04.015Z,54.40
2022-12-04T02:53:05.333Z,43.22
2022-12-04T02:55:38.492Z,46.47
2022-12-04T02:58:15.452Z,52.90
2022-12-04T03:00:45.270Z,49.75
2022-12-04T03:06:00.024Z,49.30
2022-12-04T03:08:33.807Z,51.88
2022-12-04T03:11:01.433Z,58.83
2022-12-04T03:13:44.686Z,58.70
2022-12-04T03:16:22.165Z,57.15
2022-12-04T03:18:58.906Z,58.45
2022-12-04T03:21:29.991Z,50.33
2022-12-04T03:24:04.742Z,56.80
2022-12-04T03:26:47.678Z,60.03
2022-12-04T03:29:26.974Z,57.53
2022-12-04T03:32:04.819Z,58.35
2022-12-04T03:34:41.792Z,54.38
2022-12-04T03:37:12.836Z,58.20
2022-12-04T03:39:59.945Z,64.20
2022-12-04T03:42:43.656Z,51.78
2022-12-04T03:45:23.931Z,61.08
2022-12-04T03:48:07.947Z,54.72
2022-12-04T03:50:57.665Z,49.97
2022-12-04T03:53:43.291Z,57.35
2022-12-04T03:56:17.079Z,53.17
2022-12-04T03:58:48.973Z,60.38
2022-12-04T04:01:20.009Z,60.67
2022-12-04T04:03:50.027Z,52.22
2022-12-04T04:06:26.031Z,60.85
2022-12-04T04:08:56.923Z,52.10
2022-12-04T04:11:31.708Z,57.00
2022-12-04T04:14:32.722Z,47.40
2022-12-04T04:17:22.265Z,50.45
2022-12-04T04:20:12.959Z,50.85
2022-12-04T04:22:59.380Z,49.70
2022-12-04T04:25:28.434Z,51.42
2022-12-04T04:27:58.095Z,59.58
2022-12-04T04:30:25.968Z,52.30
2022-12-04T04:33:06.471Z,51.65
2022-12-04T04:35:53.445Z,56.65
2022-12-04T04:38:36.396Z,51.80
2022-12-04T04:41:39.130Z,48.70
2022-12-04T04:44:11.630Z,60.80
2022-12-04T04:46:44.095Z,52.03
2022-12-04T04:49:12.565Z,43.65
2022-12-04T04:51:40.197Z,48.78
2022-12-04T04:54:11.851Z,52.45
2022-12-04T04:56:44.102Z,55.08
2022-12-04T04:59:12.034Z,55.40
2022-12-04T05:01:40.057Z,44.20
2022-12-04T05:04:07.813Z,45.08
2022-12-04T05:06:34.992Z,50.50
2022-12-04T05:09:01.789Z,55.30
2022-12-04T05:11:28.819Z,54.42
2022-12-04T05:13:55.872Z,52.22
2022-12-04T05:16:23.677Z,50.85
2022-12-04T05:19:10.025Z,55.15
2022-12-04T05:21:36.733Z,55.17
2022-12-04T05:24:03.811Z,48.45
2022-12-04T05:26:30.815Z,48.10
2022-12-04T05:28:59.868Z,50.72
2022-12-04T05:31:27.064Z,46.22
2022-12-04T05:33:53.940Z,44.20
2022-12-04T05:36:21.074Z,47.55
2022-12-04T05:38:48.106Z,44.08
2022-12-04T05:41:15.101Z,46.10
2022-12-04T05:43:42.165Z,52.75
2022-12-04T05:46:10.558Z,41.42
2022-12-04T05:48:37.555Z,46.60
2022-12-04T05:51:09.164Z,45.33
2022-12-04T05:53:37.078Z,74.43
2022-12-04T05:56:05.764Z,48.70
2022-12-04T05:58:36.242Z,39.38
2022-12-04T06:01:15.923Z,45.22
2022-12-04T06:03:43.188Z,45.30
2022-12-04T06:06:21.776Z,52.83
2022-12-04T06:08:51.045Z,42.03
2022-12-04T06:11:21.629Z,73.03
2022-12-04T06:13:49.031Z,48.95
2022-12-04T06:16:18.639Z,48.63
2022-12-04T06:18:49.364Z,45.92
2022-12-04T06:21:16.406Z,53.30
2022-12-04T06:23:43.328Z,41.78
2022-12-04T06:26:10.346Z,48.25
2022-12-04T06:28:37.987Z,43.70
2022-12-04T06:31:07.709Z,47.97
2022-12-04T06:33:35.628Z,51.70
2022-12-04T06:36:08.124Z,47.78
2022-12-04T06:38:35.483Z,50.63
2022-12-04T06:41:08.511Z,41.05
2022-12-04T06:43:35.631Z,46.65
2022-12-04T06:46:04.679Z,41.70
2022-12-04T06:48:32.560Z,36.22
2022-12-04T06:51:05.934Z,40.90
2022-12-04T06:53:35.368Z,42.60
2022-12-04T06:56:05.533Z,44.28
2022-12-04T06:58:32.311Z,31.88
2022-12-04T07:00:59.866Z,50.15
2022-12-04T07:03:26.974Z,45.53
2022-12-04T07:05:53.684Z,46.10
2022-12-04T07:08:20.870Z,43.78
2022-12-04T07:10:47.783Z,46.03
2022-12-04T07:13:14.842Z,37.47
2022-12-04T07:15:41.928Z,40.72
2022-12-04T07:18:08.936Z,49.60
2022-12-04T07:20:39.203Z,51.90
2022-12-04T07:23:07.533Z,52.50
2022-12-04T07:25:39.890Z,42.40
2022-12-04T07:28:06.714Z,44.25
2022-12-04T07:30:33.330Z,49.92
2022-12-04T07:33:00.290Z,47.45
2022-12-04T07:35:27.319Z,52.85
2022-12-04T07:37:54.287Z,46.80
2022-12-04T07:40:20.999Z,46.85
2022-12-04T07:42:48.023Z,43.15
2022-12-04T07:45:15.477Z,52.53
2022-12-04T07:47:42.681Z,40.10
2022-12-04T07:50:09.704Z,52.00
2022-12-04T07:52:39.887Z,43.53
2022-12-04T07:55:09.131Z,41.95
2022-12-04T07:57:36.043Z,41.55
2022-12-04T08:00:03.371Z,39.47
2022-12-04T08:02:30.126Z,51.72
2022-12-04T08:04:57.261Z,46.00
2022-12-04T08:07:24.291Z,48.25
2022-12-04T08:09:51.265Z,48.60
2022-12-04T08:12:17.946Z,44.45
2022-12-04T08:14:44.949Z,48.47
2022-12-04T08:17:12.963Z,51.38
2022-12-04T08:19:39.965Z,45.45
2022-12-04T08:22:07.116Z,58.80
2022-12-04T08:24:33.999Z,47.45
2022-12-04T08:27:01.055Z,53.50
2022-12-04T08:29:28.126Z,42.42
2022-12-04T08:31:55.928Z,48.92
2022-12-04T08:34:22.668Z,45.13
2022-12-04T08:36:49.698Z,47.75
2022-12-04T08:39:16.787Z,43.50
2022-12-04T08:41:43.762Z,50.75
2022-12-04T08:44:10.774Z,43.10
2022-12-04T08:46:38.789Z,52.13
2022-12-04T08:49:05.971Z,39.30
2022-12-04T08:51:35.355Z,45.42
2022-12-04T08:54:07.991Z,46.92
2022-12-04T08:56:35.956Z,55.75
2022-12-04T08:59:02.967Z,47.83
2022-12-04T09:01:30.446Z,45.38
2022-12-04T09:03:58.105Z,49.28
2022-12-04T09:06:25.117Z,47.88
2022-12-04T09:08:54.367Z,45.40
2022-12-04T09:11:24.767Z,41.63
2022-12-04T09:13:52.694Z,65.05
2022-12-04T09:16:22.107Z,49.05
2022-12-04T09:18:50.005Z,48.95
2022-12-04T09:21:19.547Z,45.88
2022-12-04T09:23:46.737Z,54.67
2022-12-04T09:26:24.446Z,57.20
2022-12-04T09:28:51.955Z,41.65
2022-12-04T09:31:19.480Z,42.85
2022-12-04T09:33:46.856Z,34.88
2022-12-04T09:36:16.325Z,43.35
2022-12-04T09:38:45.164Z,39.33
2022-12-04T09:41:27.308Z,47.28
2022-12-04T09:43:58.520Z,42.00
2022-12-04T09:46:51.566Z,37.33
2022-12-04T09:49:23.748Z,48.53
2022-12-04T09:51:54.373Z,38.55
2022-12-04T09:54:24.448Z,41.75
2022-12-04T09:56:59.635Z,39.70
2022-12-04T09:59:30.603Z,35.42
2022-12-04T10:02:15.815Z,41.50
2022-12-04T10:04:42.961Z,29.67
2022-12-04T10:07:15.835Z,52.20
2022-12-04T10:10:17.519Z,40.92
2022-12-04T10:13:03.059Z,40.92
2022-12-04T10:15:44.242Z,28.40
2022-12-04T10:18:20.197Z,42.58
2022-12-04T10:21:17.206Z,34.00
2022-12-04T10:23:44.025Z,31.17
2022-12-04T10:26:17.517Z,38.00
2022-12-04T10:28:55.304Z,34.85
2022-12-04T10:31:22.999Z,36.42
2022-12-04T10:34:01.380Z,43.25
2022-12-04T10:36:34.817Z,26.05
2022-12-04T10:39:21.798Z,28.55
2022-12-04T10:41:59.225Z,37.30
2022-12-04T10:44:26.300Z,48.10
2022-12-04T10:46:59.435Z,40.88
2022-12-04T10:49:29.189Z,25.08
2022-12-04T10:51:56.660Z,43.20
2022-12-04T10:54:35.556Z,38.30
2022-12-04T10:57:05.473Z,35.63
2022-12-04T11:02:21.265Z,40.47
2022-12-04T11:04:55.717Z,38.55
2022-12-04T11:07:27.696Z,41.92
2022-12-04T11:10:21.846Z,39.28
2022-12-04T11:13:00.751Z,41.63
2022-12-04T11:15:28.023Z,43.60
2022-12-04T11:17:54.759Z,30.42
2022-12-04T11:20:26.200Z,35.95
2022-12-04T11:22:59.137Z,44.60
2022-12-04T11:25:30.605Z,41.95
2022-12-04T11:28:01.011Z,35.20
2022-12-04T11:30:38.870Z,40.00
2022-12-04T11:33:32.125Z,40.17
2022-12-04T11:36:03.136Z,50.10
2022-12-04T11:38:34.046Z,44.83
2022-12-04T11:41:03.314Z,38.90
2022-12-04T11:43:33.568Z,43.17
2022-12-04T11:46:06.849Z,26.40
2022-12-04T11:48:43.606Z,34.85
2022-12-04T11:51:19.944Z,44.60
2022-12-04T11:53:55.739Z,43.88
2022-12-04T11:56:29.118Z,41.97
2022-12-04T12:00:00.951Z,41.92
2022-12-04T12:02:46.781Z,36.17
2022-12-04T12:05:43.624Z,35.40
2022-12-04T12:08:27.119Z,39.67
2022-12-04T12:11:02.604Z,30.48
2022-12-04T12:13:46.375Z,34.53
2022-12-04T12:16:28.319Z,28.40
2022-12-04T12:19:20.590Z,31.48
2022-12-04T12:21:53.327Z,41.53
2022-12-04T12:24:29.018Z,30.67
2022-12-04T12:27:26.903Z,38.60
2022-12-04T12:30:20.366Z,31.33
2022-12-04T12:33:02.353Z,33.55
2022-12-04T12:36:00.176Z,34.25
2022-12-04T12:38:35.000Z,52.97
2022-12-04T12:41:11.569Z,35.75
2022-12-04T12:43:40.308Z,34.03
2022-12-04T12:46:37.538Z,27.70
2022-12-04T12:49:42.498Z,30.92
2022-12-04T12:52:27.880Z,25.17
2022-12-04T12:55:26.084Z,20.45
2022-12-04T12:58:17.318Z,25.00
2022-12-04T13:01:06.249Z,28.95
2022-12-04T13:04:08.532Z,35.60
2022-12-04T13:06:44.326Z,31.20
2022-12-04T13:09:29.848Z,38.17
2022-12-04T13:12:05.869Z,31.90
2022-12-04T13:14:32.716Z,29.05
2022-12-04T13:17:04.131Z,26.05
2022-12-04T13:19:46.179Z,20.15
2022-12-04T13:22:33.837Z,27.35
2022-12-04T13:25:12.755Z,28.63
2022-12-04T13:27:58.089Z,29.43
2022-12-04T13:30:48.602Z,29.17
2022-12-04T13:33:27.327Z,21.52
2022-12-04T13:36:26.349Z,30.77
2022-12-04T13:39:22.063Z,23.38
2022-12-04T13:42:00.947Z,24.35
2022-12-04T13:44:29.797Z,38.72
2022-12-04T13:47:01.900Z,28.42
2022-12-04T13:49:34.254Z,37.20
2022-12-04T13:52:04.490Z,29.45
2022-12-04T13:54:36.009Z,34.28
2022-12-04T13:57:15.267Z,32.17
2022-12-04T13:59:42.661Z,33.03
2022-12-04T14:02:27.846Z,29.88
2022-12-04T14:05:04.065Z,25.38
2022-12-04T14:07:40.059Z,26.40
2022-12-04T14:10:22.261Z,25.02
2022-12-04T14:13:19.599Z,29.20
2022-12-04T14:15:46.607Z,24.90
2022-12-04T14:18:13.892Z,31.25
2022-12-04T14:20:44.398Z,26.70
2022-12-04T14:23:25.988Z,38.70
2022-12-04T14:25:57.746Z,31.60
2022-12-04T14:28:41.682Z,35.90
2022-12-04T14:31:09.072Z,24.08
2022-12-04T14:34:03.694Z,37.55
2022-12-04T14:36:36.191Z,28.98
2022-12-04T14:39:32.095Z,24.88
2022-12-04T14:42:38.005Z,22.88
2022-12-04T14:45:36.571Z,26.88
2022-12-04T14:48:32.611Z,27.98
2022-12-04T14:51:37.806Z,23.48
2022-12-04T14:54:10.952Z,55.10
2022-12-04T14:56:56.004Z,22.98
2022-12-04T14:59:29.592Z,17.83
2022-12-04T15:01:56.456Z,21.88
2022-12-04T15:04:35.356Z,35.42
2022-12-04T15:07:02.692Z,21.60
2022-12-04T15:09:48.362Z,27.33
2022-12-04T15:12:33.415Z,18.58
2022-12-04T15:15:22.389Z,28.85
2022-12-04T15:18:14.681Z,23.27
2022-12-04T15:20:50.211Z,20.38
2022-12-04T15:23:26.924Z,20.55
2022-12-04T15:25:58.477Z,24.65
2022-12-04T15:28:43.104Z,21.35
2022-12-04T15:31:18.880Z,25.85
2022-12-04T15:33:49.317Z,18.10
2022-12-04T15:36:42.896Z,21.52
2022-12-04T15:39:18.040Z,20.92
2022-12-04T15:41:44.733Z,20.23
2022-12-04T15:44:32.253Z,20.60
2022-12-04T15:47:01.852Z,24.38
2022-12-04T15:49:33.304Z,37.28
2022-12-04T15:52:26.362Z,20.98
2022-12-04T15:55:07.441Z,25.88
2022-12-04T15:57:42.520Z,24.77
2022-12-04T16:02:39.489Z,21.67
2022-12-04T16:05:26.103Z,24.73
2022-12-04T16:08:01.914Z,23.00
2022-12-04T16:10:32.272Z,22.85
2022-12-04T16:13:02.896Z,41.97
2022-12-04T16:15:47.669Z,25.23
2022-12-04T16:18:14.728Z,30.45
2022-12-04T16:20:41.775Z,38.90
2022-12-04T16:23:09.671Z,32.17
2022-12-04T16:25:37.025Z,27.17
2022-12-04T16:28:04.252Z,27.33
2022-12-04T16:30:33.904Z,49.20
2022-12-04T16:33:00.628Z,27.65
2022-12-04T16:35:27.788Z,23.67
2022-12-04T16:37:54.716Z,31.65
2022-12-04T16:40:21.429Z,33.72
2022-12-04T16:42:48.691Z,34.83
2022-12-04T16:45:18.352Z,33.85
2022-12-04T16:47:46.412Z,30.50
2022-12-04T16:50:13.333Z,39.40
2022-12-04T16:52:40.318Z,28.63
2022-12-04T16:55:31.466Z,32.92
2022-12-04T16:57:58.168Z,34.45
2022-12-04T17:00:25.137Z,28.90
2022-12-04T17:02:51.935Z,37.72
2022-12-04T17:05:21.646Z,24.17
2022-12-04T17:07:48.842Z,42.22
2022-12-04T17:10:23.286Z,30.85
2022-12-04T17:12:53.522Z,24.00
2022-12-04T17:15:20.329Z,29.27
2022-12-04T17:17:47.280Z,31.45
2022-12-04T17:20:16.686Z,26.95
2022-12-04T17:22:43.426Z,29.40
2022-12-04T17:25:11.616Z,28.95
2022-12-04T17:27:38.632Z,29.33
2022-12-04T17:30:06.916Z,30.15
2022-12-04T17:32:37.152Z,30.23
2022-12-04T17:35:06.229Z,29.52
2022-12-04T17:37:34.677Z,34.63
2022-12-04T17:40:02.723Z,34.60
2022-12-04T17:42:29.603Z,30.60
2022-12-04T17:44:56.934Z,36.53
2022-12-04T17:47:24.147Z,36.50
2022-12-04T17:49:51.642Z,27.63
2022-12-04T17:52:22.469Z,29.92
2022-12-04T17:54:50.598Z,35.33
2022-12-04T17:57:18.624Z,34.35
2022-12-04T17:59:45.690Z,31.67
2022-12-04T18:02:13.219Z,43.63
2022-12-04T18:04:40.134Z,35.90
2022-12-04T18:07:07.501Z,39.60
2022-12-04T18:09:35.066Z,33.63
2022-12-04T18:12:02.144Z,34.35
2022-12-04T18:14:30.008Z,36.22
2022-12-04T18:16:58.092Z,49.65
2022-12-04T18:19:28.288Z,27.98
2022-12-04T18:21:56.724Z,25.38
2022-12-04T18:24:25.219Z,25.83
2022-12-04T18:26:52.125Z,27.38
2022-12-04T18:29:24.952Z,24.98
2022-12-04T18:31:52.167Z,32.83
2022-12-04T18:34:19.441Z,30.73
2022-12-04T18:36:46.662Z,28.67
2022-12-04T18:39:20.196Z,27.77
2022-12-04T18:41:47.992Z,37.20
2022-12-04T18:44:15.474Z,27.25
2022-12-04T18:46:42.482Z,29.58
2022-12-04T18:49:10.308Z,33.05
2022-12-04T18:51:49.545Z,28.90
2022-12-04T18:54:22.409Z,26.73
2022-12-04T18:56:50.524Z,25.88
2022-12-04T18:59:20.715Z,32.40
2022-12-04T19:01:49.828Z,28.02
2022-12-04T19:04:18.336Z,27.48
2022-12-04T19:06:47.514Z,29.98
2022-12-04T19:09:20.562Z,32.35
2022-12-04T19:11:47.264Z,28.20
2022-12-04T19:14:22.697Z,32.90
2022-12-04T19:16:51.261Z,25.90
2022-12-04T19:19:18.412Z,55.28
2022-12-04T19:21:45.245Z,30.55
2022-12-04T19:24:13.997Z,34.28
2022-12-04T19:26:41.061Z,35.92
2022-12-04T19:29:08.581Z,37.28
2022-12-04T19:31:37.176Z,31.00
2022-12-04T19:34:05.104Z,29.42
2022-12-04T19:36:33.340Z,31.35
2022-12-04T19:39:01.561Z,34.70
2022-12-04T19:41:30.377Z,27.60
2022-12-04T19:43:59.565Z,32.63
2022-12-04T19:46:30.013Z,32.63
2022-12-04T19:49:01.944Z,37.88
2022-12-04T19:51:31.881Z,36.75
2022-12-04T19:53:59.005Z,33.92
2022-12-04T19:56:27.612Z,31.50
2022-12-04T19:58:56.485Z,32.65
2022-12-04T20:01:25.366Z,28.88
2022-12-04T20:03:53.592Z,35.93
2022-12-04T20:06:22.848Z,37.03
2022-12-04T20:09:01.478Z,30.52
2022-12-04T20:11:30.148Z,36.33
2022-12-04T20:13:59.785Z,40.30
2022-12-04T20:16:30.191Z,35.72
2022-12-04T20:18:59.255Z,39.75
2022-12-04T20:21:30.200Z,41.93
2022-12-04T20:24:00.172Z,37.00
2022-12-04T20:26:29.689Z,37.40
2022-12-04T20:28:58.327Z,36.78
2022-12-04T20:31:29.966Z,46.25
2022-12-04T20:33:59.750Z,36.45
2022-12-04T20:38:58.166Z,36.67
2022-12-04T20:43:53.241Z,41.53
2022-12-04T20:46:33.011Z,39.72
2022-12-04T20:51:33.695Z,50.00
2022-12-04T20:54:01.514Z,43.63
2022-12-04T20:56:32.841Z,53.20
2022-12-04T20:59:04.586Z,43.88
2022-12-04T21:01:33.403Z,50.25
2022-12-04T21:04:01.234Z,54.03
2022-12-04T21:06:35.839Z,44.97
2022-12-04T21:09:05.937Z,40.60
2022-12-04T21:11:39.320Z,51.00
2022-12-04T21:14:30.380Z,44.92
2022-12-04T21:16:58.627Z,46.22
2022-12-04T21:19:26.161Z,51.35
2022-12-04T21:21:53.993Z,48.55
2022-12-04T21:24:23.661Z,56.05
2022-12-04T21:26:50.444Z,50.70
2022-12-04T21:29:18.552Z,45.92
2022-12-04T21:31:45.693Z,50.72
2022-12-04T21:34:18.615Z,58.25
2022-12-04T21:36:46.428Z,47.70
2022-12-04T21:39:14.791Z,61.63
2022-12-04T21:42:00.474Z,57.13
2022-12-04T21:44:27.478Z,53.03
2022-12-04T21:46:54.335Z,49.53
2022-12-04T21:49:21.439Z,55.08
2022-12-04T21:52:03.577Z,53.80
2022-12-04T21:54:30.861Z,60.53
2022-12-04T21:56:58.054Z,47.55
2022-12-04T21:59:26.062Z,55.53
2022-12-04T22:01:53.647Z,58.25
2022-12-04T22:04:21.123Z,50.95
2022-12-04T22:06:47.898Z,54.35
2022-12-04T22:09:15.114Z,55.20
2022-12-04T22:11:42.514Z,57.60
2022-12-04T22:14:11.132Z,65.55
2022-12-04T22:16:42.323Z,59.30
2022-12-04T22:19:10.450Z,49.47
2022-12-04T22:21:37.296Z,49.25
2022-12-04T22:24:04.906Z,59.00
2022-12-04T22:26:38.240Z,57.10
2022-12-04T22:29:27.140Z,52.38
2022-12-04T22:31:52.814Z,61.80
2022-12-04T22:34:19.870Z,59.38
2022-12-04T22:36:49.085Z,45.10
2022-12-04T22:39:15.954Z,53.50
2022-12-04T22:41:43.003Z,54.30
2022-12-04T22:44:10.109Z,52.15
2022-12-04T22:46:37.109Z,52.08
2022-12-04T22:49:04.240Z,58.58
2022-12-04T22:51:31.237Z,64.32
2022-12-04T22:53:58.628Z,65.28
2022-12-04T22:56:28.104Z,57.40
2022-12-04T22:58:55.603Z,65.32
2022-12-04T23:01:28.468Z,79.55
2022-12-04T23:03:55.827Z,71.57
2022-12-04T23:06:24.354Z,63.63
2022-12-04T23:08:55.796Z,67.38
2022-12-04T23:11:24.120Z,73.75
2022-12-04T23:13:56.975Z,83.65
2022-12-04T23:16:24.827Z,69.82
2022-12-04T23:18:52.103Z,85.70
2022-12-04T23:21:20.864Z,73.28
2022-12-04T23:23:49.385Z,80.07
2022-12-04T23:26:19.132Z,83.30
2022-12-04T23:28:46.587Z,87.60
2022-12-04T23:31:13.903Z,74.55
2022-12-04T23:33:42.004Z,92.75
2022-12-04T23:36:10.345Z,86.90
2022-12-04T23:38:39.334Z,87.55
2022-12-04T23:41:12.238Z,74.33
2022-12-04T23:43:41.419Z,82.05
2022-12-04T23:46:11.593Z,73.40
2022-12-04T23:48:40.382Z,81.18
2022-12-04T23:51:08.310Z,80.13
2022-12-04T23:53:35.773Z,80.70
2022-12-04T23:56:12.718Z,80.65
2022-12-04T23:58:40.685Z,80.68
